Time;durP1;ratioP1;P1;durP2;ratioP2;P2;SDS_P1;SDS_P2;PMS_P1;PMS_P2;Temp;Humidity;BMP_temperature;BMP_pressure;BME280_temperature;BME280_humidity;BME280_pressure;Samples;Min_cycle;Max_cycle;Signal;HPM_P1;HPM_P2
2021/01/07 00:00:57;;;;;;;30.27;22.63;;;4.00;99.90;;;;;;5014558;28;20638;-87
2021/01/07 00:03:24;;;;;;;30.83;22.40;;;3.90;99.90;;;;;;5013808;28;20666;-89
2021/01/07 00:05:50;;;;;;;32.90;23.33;;;4.00;99.90;;;;;;5013757;28;20190;-88
2021/01/07 00:08:15;;;;;;;31.23;21.80;;;3.90;99.90;;;;;;5014600;28;20240;-86
2021/01/07 00:10:43;;;;;;;30.63;21.70;;;3.90;99.90;;;;;;5014731;28;20180;-89
2021/01/07 00:13:11;;;;;;;30.67;22.47;;;3.90;99.90;;;;;;5014567;28;20219;-86
2021/01/07 00:15:36;;;;;;;33.67;23.90;;;3.90;99.90;;;;;;5014219;28;20588;-85
2021/01/07 00:18:02;;;;;;;32.83;22.93;;;3.90;99.90;;;;;;5013578;28;20210;-88
2021/01/07 00:20:29;;;;;;;31.63;22.63;;;3.90;99.90;;;;;;5013769;28;20174;-88
2021/01/07 00:22:54;;;;;;;35.07;24.60;;;3.90;99.90;;;;;;5013841;28;20218;-89
2021/01/07 00:25:20;;;;;;;32.37;22.43;;;3.90;99.90;;;;;;5014123;28;20650;-90
2021/01/07 00:27:46;;;;;;;32.50;23.27;;;3.90;99.90;;;;;;5014042;28;20175;-91
2021/01/07 00:30:12;;;;;;;35.17;23.93;;;4.10;99.90;;;;;;5013942;28;20583;-86
2021/01/07 00:32:37;;;;;;;35.47;23.90;;;4.00;99.90;;;;;;5013750;28;20658;-89
2021/01/07 00:35:04;;;;;;;32.77;22.97;;;3.80;99.90;;;;;;5014046;28;20313;-89
2021/01/07 00:37:29;;;;;;;34.87;24.43;;;3.80;99.90;;;;;;5014047;28;20205;-88
2021/01/07 00:39:55;;;;;;;34.30;24.37;;;3.70;99.90;;;;;;5014164;28;20182;-88
2021/01/07 00:42:21;;;;;;;36.03;24.67;;;3.70;99.90;;;;;;5014346;28;20218;-89
2021/01/07 00:45:07;;;;;;;37.37;25.53;;;3.90;99.90;;;;;;5014059;28;20213;-90
2021/01/07 00:47:54;;;;;;;37.50;24.90;;;3.90;99.90;;;;;;5014381;28;20178;-88
2021/01/07 00:50:26;;;;;;;36.43;25.33;;;3.70;99.90;;;;;;5013481;28;20190;-88
2021/01/07 00:52:52;;;;;;;35.23;25.53;;;3.60;99.90;;;;;;5014357;28;20179;-89
2021/01/07 00:55:18;;;;;;;35.90;25.37;;;3.60;99.90;;;;;;5013853;28;20563;-89
2021/01/07 00:57:53;;;;;;;36.03;25.60;;;3.60;99.90;;;;;;5013673;28;20628;-90
2021/01/07 01:00:23;;;;;;;36.90;26.73;;;3.60;99.90;;;;;;5015253;28;20180;-90
2021/01/07 01:02:58;;;;;;;35.40;25.53;;;3.60;99.90;;;;;;5035054;28;20210;-88
2021/01/07 01:05:24;;;;;;;35.67;25.90;;;3.70;99.90;;;;;;5042423;23;20235;-87
2021/01/07 01:07:51;;;;;;;36.23;25.83;;;3.80;99.90;;;;;;4989301;28;20215;-90
2021/01/07 01:10:20;;;;;;;38.13;26.40;;;3.70;99.90;;;;;;4982323;28;20195;-89
2021/01/07 01:12:51;;;;;;;36.60;25.23;;;3.70;99.90;;;;;;4978178;28;20172;-88
2021/01/07 01:15:18;;;;;;;38.00;25.40;;;3.70;99.90;;;;;;4977877;28;20178;-89
2021/01/07 01:17:44;;;;;;;38.70;25.83;;;3.50;99.90;;;;;;4977865;28;20239;-88
2021/01/07 01:20:11;;;;;;;38.10;27.43;;;3.70;99.90;;;;;;4977322;28;20207;-89
2021/01/07 01:22:37;;;;;;;37.23;25.70;;;3.60;99.90;;;;;;4976523;28;20231;-87
2021/01/07 01:25:09;;;;;;;36.57;26.57;;;3.70;99.90;;;;;;4977088;28;20179;-90
2021/01/07 01:27:36;;;;;;;36.57;26.07;;;3.60;99.90;;;;;;4977990;28;20163;-85
2021/01/07 01:30:06;;;;;;;38.83;26.63;;;3.50;99.90;;;;;;4977036;28;20255;-89
2021/01/07 01:32:34;;;;;;;36.07;25.83;;;3.50;99.90;;;;;;4976865;28;20176;-88
2021/01/07 01:35:00;;;;;;;38.70;25.77;;;3.50;99.90;;;;;;4976532;28;20310;-88
2021/01/07 01:37:26;;;;;;;33.57;23.67;;;3.50;99.90;;;;;;4976374;28;20207;-90
2021/01/07 01:39:52;;;;;;;39.00;26.93;;;3.40;99.90;;;;;;4976526;28;20254;-88
2021/01/07 01:42:23;;;;;;;46.33;26.83;;;3.40;99.90;;;;;;4977572;28;20215;-90
2021/01/07 01:44:49;;;;;;;38.03;27.03;;;3.30;99.90;;;;;;4976678;28;20181;-89
2021/01/07 01:47:14;;;;;;;33.90;25.40;;;3.40;99.90;;;;;;4976655;28;20565;-87
2021/01/07 01:49:40;;;;;;;36.10;25.43;;;3.40;99.90;;;;;;4976580;28;20667;-88
2021/01/07 01:52:06;;;;;;;37.13;26.50;;;3.50;99.90;;;;;;4976719;28;20175;-86
2021/01/07 01:54:31;;;;;;;37.03;26.33;;;3.40;99.90;;;;;;4976687;28;20546;-90
2021/01/07 01:56:58;;;;;;;34.70;26.07;;;3.60;99.90;;;;;;4976366;28;20179;-86
2021/01/07 01:59:28;;;;;;;36.83;26.27;;;3.60;99.90;;;;;;4976592;28;20176;-85
2021/01/07 02:01:54;;;;;;;35.80;26.37;;;3.60;99.90;;;;;;4976758;28;20234;-89
2021/01/07 02:04:19;;;;;;;37.70;26.83;;;3.70;99.90;;;;;;4976765;28;20187;-86
2021/01/07 02:06:47;;;;;;;40.43;27.33;;;3.80;99.90;;;;;;4976768;28;20245;-87
2021/01/07 02:09:14;;;;;;;33.73;24.43;;;3.80;99.90;;;;;;4976781;28;20239;-87
2021/01/07 02:11:40;;;;;;;36.97;25.87;;;3.60;99.90;;;;;;4976122;28;20247;-88
2021/01/07 02:14:05;;;;;;;36.13;26.00;;;3.60;99.90;;;;;;4976576;28;20660;-86
2021/01/07 02:16:31;;;;;;;36.40;25.90;;;3.60;99.90;;;;;;4975630;28;20306;-86
2021/01/07 02:18:57;;;;;;;37.53;26.50;;;3.60;99.90;;;;;;4976115;28;20235;-90
2021/01/07 02:21:24;;;;;;;37.17;26.57;;;3.60;99.90;;;;;;4976846;28;20203;-87
2021/01/07 02:23:52;;;;;;;36.77;25.97;;;3.50;99.90;;;;;;4976484;28;20600;-86
2021/01/07 02:26:19;;;;;;;36.03;24.80;;;3.50;99.90;;;;;;4975981;28;20265;-84
2021/01/07 02:28:46;;;;;;;39.97;27.07;;;3.50;99.90;;;;;;4975830;28;20182;-89
2021/01/07 02:31:12;;;;;;;35.33;24.93;;;3.40;99.90;;;;;;4976179;28;20643;-88
2021/01/07 02:33:38;;;;;;;35.97;25.37;;;3.40;99.90;;;;;;4976411;28;20267;-90
2021/01/07 02:36:05;;;;;;;37.93;26.67;;;3.40;99.90;;;;;;4976727;28;20207;-88
2021/01/07 02:38:30;;;;;;;37.10;25.37;;;3.40;99.90;;;;;;4975962;28;20175;-88
2021/01/07 02:40:56;;;;;;;39.20;25.40;;;3.40;99.90;;;;;;4975314;28;20179;-87
2021/01/07 02:43:23;;;;;;;37.70;25.43;;;3.50;99.90;;;;;;4975482;28;20238;-88
2021/01/07 02:45:48;;;;;;;35.47;25.63;;;3.50;99.90;;;;;;4976773;28;20180;-88
2021/01/07 02:48:14;;;;;;;39.90;25.57;;;3.40;99.90;;;;;;4976562;28;20176;-88
2021/01/07 02:50:39;;;;;;;37.07;25.27;;;3.40;99.90;;;;;;4975400;28;20230;-88
2021/01/07 02:53:05;;;;;;;35.20;25.23;;;3.40;99.90;;;;;;4976212;28;20198;-86
2021/01/07 02:55:31;;;;;;;36.67;25.27;;;3.70;99.90;;;;;;4975485;28;20179;-89
2021/01/07 02:57:57;;;;;;;39.47;25.67;;;3.50;99.90;;;;;;4975421;28;20545;-88
2021/01/07 03:00:23;;;;;;;36.47;24.93;;;3.60;99.90;;;;;;4975529;28;20275;-89
2021/01/07 03:02:49;;;;;;;33.20;24.43;;;3.60;99.90;;;;;;4975030;28;20211;-89
2021/01/07 03:05:14;;;;;;;32.40;23.47;;;3.60;99.90;;;;;;4974982;28;20573;-88
2021/01/07 03:07:40;;;;;;;34.57;24.40;;;3.50;99.90;;;;;;4975189;28;20671;-88
2021/01/07 03:10:09;;;;;;;34.70;24.33;;;3.50;99.90;;;;;;4975380;28;20168;-85
2021/01/07 03:12:35;;;;;;;35.97;23.83;;;3.40;99.90;;;;;;4975032;28;20225;-89
2021/01/07 03:15:01;;;;;;;35.27;24.17;;;3.50;99.90;;;;;;4975379;28;20176;-89
2021/01/07 03:17:27;;;;;;;34.67;24.37;;;3.50;99.90;;;;;;4974867;28;20574;-89
2021/01/07 03:19:53;;;;;;;31.53;23.30;;;3.50;99.90;;;;;;4974770;28;20203;-86
2021/01/07 03:22:18;;;;;;;34.07;24.83;;;3.50;99.90;;;;;;4974708;28;20234;-88
2021/01/07 03:24:44;;;;;;;32.77;22.47;;;3.50;99.90;;;;;;4975957;28;20175;-90
2021/01/07 03:27:09;;;;;;;33.67;23.97;;;3.50;99.90;;;;;;4973952;28;20202;-87
2021/01/07 03:29:35;;;;;;;33.37;24.37;;;3.40;99.90;;;;;;4974847;28;20183;-85
2021/01/07 03:32:01;;;;;;;36.37;25.33;;;3.50;99.90;;;;;;4974431;28;20180;-87
2021/01/07 03:34:27;;;;;;;37.77;24.10;;;3.60;99.90;;;;;;4974465;28;20188;-86
2021/01/07 03:36:52;;;;;;;34.80;24.93;;;3.60;99.90;;;;;;4974780;28;20262;-87
2021/01/07 03:39:18;;;;;;;33.77;24.23;;;3.70;99.90;;;;;;4974936;28;20190;-89
2021/01/07 03:41:44;;;;;;;35.07;23.83;;;3.70;99.90;;;;;;4975786;28;20282;-85
2021/01/07 03:44:10;;;;;;;32.57;23.40;;;3.70;99.90;;;;;;4974560;28;20226;-86
2021/01/07 03:46:36;;;;;;;32.17;22.80;;;3.60;99.90;;;;;;4975608;28;20531;-85
2021/01/07 03:49:02;;;;;;;31.73;22.80;;;3.60;99.90;;;;;;4974389;28;20258;-86
2021/01/07 03:51:27;;;;;;;35.77;23.47;;;3.80;99.90;;;;;;4974067;28;20262;-89
2021/01/07 03:53:53;;;;;;;31.70;24.03;;;3.70;99.90;;;;;;4974133;28;20235;-86
2021/01/07 03:56:18;;;;;;;32.53;23.70;;;3.80;99.90;;;;;;4975495;28;20171;-87
2021/01/07 03:58:44;;;;;;;33.10;23.03;;;3.90;99.90;;;;;;4974250;28;20190;-89
2021/01/07 04:01:10;;;;;;;32.57;23.50;;;3.90;99.90;;;;;;4975403;28;20275;-89
2021/01/07 04:03:35;;;;;;;31.60;23.10;;;3.90;99.90;;;;;;4973662;28;20187;-88
2021/01/07 04:06:02;;;;;;;33.90;23.80;;;3.90;99.90;;;;;;4974246;28;20202;-88
2021/01/07 04:08:28;;;;;;;33.83;24.20;;;3.90;99.90;;;;;;4976177;28;20190;-90
2021/01/07 04:10:53;;;;;;;31.90;22.57;;;3.70;99.90;;;;;;4974625;28;20534;-90
2021/01/07 04:13:19;;;;;;;33.17;22.50;;;3.70;99.90;;;;;;4973915;28;20727;-89
2021/01/07 04:15:44;;;;;;;31.80;22.77;;;3.70;99.90;;;;;;4975227;28;20710;-91
2021/01/07 04:18:10;;;;;;;30.33;21.30;;;3.70;99.90;;;;;;4973614;28;20180;-88
2021/01/07 04:20:36;;;;;;;33.57;22.20;;;3.80;99.90;;;;;;4974217;28;20214;-86
2021/01/07 04:23:02;;;;;;;29.70;21.57;;;3.70;99.90;;;;;;4973798;28;20210;-88
2021/01/07 04:25:27;;;;;;;28.60;20.37;;;3.90;99.90;;;;;;4974202;28;20179;-86
2021/01/07 04:27:53;;;;;;;29.83;20.77;;;3.80;99.90;;;;;;4974338;28;20187;-87
2021/01/07 04:30:19;;;;;;;26.73;19.53;;;3.70;99.90;;;;;;4974034;28;20633;-87
2021/01/07 04:32:45;;;;;;;27.30;18.97;;;3.70;99.90;;;;;;4973699;28;20180;-89
2021/01/07 04:35:11;;;;;;;25.20;17.63;;;3.80;99.90;;;;;;4974258;28;20198;-86
2021/01/07 04:37:36;;;;;;;23.57;16.83;;;3.80;99.90;;;;;;4974654;28;20398;-88
2021/01/07 04:40:04;;;;;;;25.13;18.67;;;3.90;99.90;;;;;;4978202;28;20214;-88
2021/01/07 04:42:29;;;;;;;25.47;17.67;;;4.00;99.90;;;;;;4978063;28;20679;-85
2021/01/07 04:44:56;;;;;;;25.60;18.33;;;3.90;99.90;;;;;;4978042;28;20211;-87
2021/01/07 04:47:23;;;;;;;21.87;15.53;;;3.90;99.90;;;;;;4978905;28;20178;-89
2021/01/07 04:49:51;;;;;;;22.20;16.27;;;3.80;99.90;;;;;;4977932;28;20182;-88
2021/01/07 04:52:17;;;;;;;18.57;13.97;;;3.80;99.90;;;;;;4977404;28;20175;-88
2021/01/07 04:54:43;;;;;;;20.97;15.27;;;3.80;99.90;;;;;;4977822;28;20178;-90
2021/01/07 04:57:08;;;;;;;20.77;14.53;;;3.70;99.90;;;;;;4978184;28;20764;-88
2021/01/07 04:59:34;;;;;;;20.20;15.07;;;3.60;99.90;;;;;;4977503;28;20171;-89
2021/01/07 05:02:01;;;;;;;19.93;14.43;;;3.60;99.90;;;;;;4977141;28;20735;-89
2021/01/07 05:04:27;;;;;;;19.60;14.43;;;3.50;99.90;;;;;;4977380;28;20287;-88
2021/01/07 05:06:52;;;;;;;20.80;14.83;;;3.60;99.90;;;;;;4977542;28;20234;-86
2021/01/07 05:09:18;;;;;;;20.87;15.40;;;3.60;99.90;;;;;;4977638;28;20181;-89
2021/01/07 05:11:43;;;;;;;20.07;15.40;;;3.50;99.90;;;;;;4977355;28;20175;-89
2021/01/07 05:14:10;;;;;;;21.37;15.90;;;3.60;99.90;;;;;;4977842;28;20222;-85
2021/01/07 05:16:36;;;;;;;22.10;16.43;;;3.60;99.90;;;;;;4978969;28;20172;-88
2021/01/07 05:19:04;;;;;;;22.10;15.93;;;3.60;99.90;;;;;;4977470;28;20182;-89
2021/01/07 05:21:30;;;;;;;21.63;16.00;;;3.60;99.90;;;;;;4978381;28;20299;-89
2021/01/07 05:23:57;;;;;;;22.73;15.03;;;3.60;99.90;;;;;;4977324;28;20648;-88
2021/01/07 05:26:26;;;;;;;19.77;14.60;;;3.60;99.90;;;;;;4977796;28;20191;-89
2021/01/07 05:28:58;;;;;;;17.50;13.63;;;3.60;99.90;;;;;;4976941;28;20628;-89
2021/01/07 05:31:26;;;;;;;21.93;15.50;;;3.60;99.90;;;;;;4977352;28;20716;-88
2021/01/07 05:33:53;;;;;;;18.27;14.63;;;3.60;99.90;;;;;;4978682;28;20207;-91
2021/01/07 05:36:25;;;;;;;19.00;14.50;;;3.70;99.90;;;;;;4978656;28;20270;-89
2021/01/07 05:38:53;;;;;;;22.07;15.47;;;3.60;99.90;;;;;;4977292;28;20176;-86
2021/01/07 05:41:21;;;;;;;19.07;14.20;;;3.60;99.90;;;;;;4977038;28;20243;-87
2021/01/07 05:43:58;;;;;;;19.80;14.97;;;3.50;99.90;;;;;;4976949;28;20176;-87
2021/01/07 05:46:24;;;;;;;17.50;14.27;;;3.50;99.90;;;;;;4976798;28;20270;-90
2021/01/07 05:48:53;;;;;;;19.53;14.53;;;3.40;99.90;;;;;;4977019;28;20215;-90
2021/01/07 05:51:24;;;;;;;18.20;14.60;;;3.40;99.90;;;;;;4975881;28;20175;-89
2021/01/07 05:53:54;;;;;;;17.63;13.80;;;3.30;99.90;;;;;;4976976;28;20278;-89
2021/01/07 05:56:21;;;;;;;17.13;13.53;;;3.40;99.90;;;;;;4977155;28;20180;-86
2021/01/07 05:58:54;;;;;;;23.63;14.80;;;3.30;99.90;;;;;;4977498;28;20211;-87
2021/01/07 06:01:22;;;;;;;20.37;15.60;;;3.20;99.90;;;;;;4976607;28;20178;-89
2021/01/07 06:03:53;;;;;;;22.63;16.00;;;3.20;99.90;;;;;;4977331;28;20188;-89
2021/01/07 06:06:22;;;;;;;21.40;16.13;;;3.30;99.90;;;;;;4976583;28;20238;-87
2021/01/07 06:08:54;;;;;;;20.27;16.13;;;3.30;99.90;;;;;;4976880;28;20640;-90
2021/01/07 06:11:21;;;;;;;20.37;16.33;;;3.40;99.90;;;;;;4977561;28;20171;-90
2021/01/07 06:13:50;;;;;;;20.73;16.33;;;3.50;99.90;;;;;;4976823;28;20187;-88
2021/01/07 06:16:21;;;;;;;23.10;17.60;;;3.50;99.90;;;;;;4977599;28;20183;-89
2021/01/07 06:18:47;;;;;;;19.77;16.07;;;3.50;99.90;;;;;;4976328;28;20184;-85
2021/01/07 06:21:14;;;;;;;20.20;15.10;;;3.50;99.90;;;;;;4977531;28;20172;-86
2021/01/07 06:23:44;;;;;;;21.83;15.83;;;3.50;99.90;;;;;;4982505;28;20180;-89
2021/01/07 06:26:26;;;;;;;18.93;14.80;;;3.50;99.90;;;;;;4981471;28;20698;-87
2021/01/07 06:28:57;;;;;;;20.33;15.20;;;3.50;99.90;;;;;;4982733;28;20175;-88
2021/01/07 06:31:36;;;;;;;18.80;15.10;;;3.60;99.90;;;;;;4977285;28;20172;-86
2021/01/07 06:34:03;;;;;;;19.23;15.37;;;3.60;99.90;;;;;;4975704;28;20184;-87
2021/01/07 06:36:43;;;;;;;19.83;15.17;;;3.50;99.90;;;;;;4976149;28;20176;-87
2021/01/07 06:39:09;;;;;;;20.07;15.57;;;3.50;99.90;;;;;;4978163;28;20202;-83
2021/01/07 06:41:35;;;;;;;23.33;15.57;;;3.40;99.90;;;;;;4980279;28;20656;-88
2021/01/07 06:44:05;;;;;;;21.13;16.00;;;3.40;99.90;;;;;;4982344;28;20191;-87
2021/01/07 06:46:47;;;;;;;20.00;15.63;;;3.50;99.90;;;;;;4982058;28;20179;-86
2021/01/07 06:49:25;;;;;;;20.83;15.50;;;3.70;99.90;;;;;;4976449;28;20190;-89
2021/01/07 06:52:06;;;;;;;24.10;16.60;;;3.80;99.90;;;;;;4975484;28;20190;-87
2021/01/07 06:54:33;;;;;;;21.50;16.90;;;3.90;99.90;;;;;;4975692;28;20175;-88
2021/01/07 06:57:08;;;;;;;23.03;17.30;;;3.60;99.90;;;;;;4975160;28;20183;-87
2021/01/07 06:59:34;;;;;;;19.80;15.80;;;3.70;99.90;;;;;;4975564;28;20265;-87
2021/01/07 07:02:02;;;;;;;20.20;15.77;;;3.70;99.90;;;;;;4974383;28;20235;-87
2021/01/07 07:04:29;;;;;;;17.70;15.03;;;3.70;99.90;;;;;;4976137;28;20246;-89
2021/01/07 07:07:03;;;;;;;21.20;15.83;;;3.70;99.90;;;;;;4975707;28;20241;-89
2021/01/07 07:09:39;;;;;;;19.77;15.80;;;3.80;99.90;;;;;;4975912;28;20168;-95
2021/01/07 07:12:06;;;;;;;20.63;15.13;;;3.80;99.90;;;;;;4975389;28;20182;-86
2021/01/07 07:14:32;;;;;;;18.60;14.73;;;3.90;99.90;;;;;;4975448;28;20206;-88
2021/01/07 07:17:10;;;;;;;18.53;14.87;;;3.80;99.90;;;;;;4982219;28;20183;-88
2021/01/07 07:19:40;;;;;;;22.80;16.23;;;4.00;99.90;;;;;;4960677;28;20226;-88
2021/01/07 07:22:08;;;;;;;24.73;15.93;;;3.90;99.90;;;;;;4976198;28;20277;-87
2021/01/07 07:24:49;;;;;;;20.07;15.70;;;3.90;99.90;;;;;;4976369;28;20206;-88
2021/01/07 07:27:17;;;;;;;22.70;16.77;;;3.80;99.90;;;;;;4975855;28;20182;-89
2021/01/07 07:29:45;;;;;;;24.60;17.37;;;3.80;99.90;;;;;;4975903;28;20179;-89
2021/01/07 07:32:27;;;;;;;22.53;17.30;;;3.90;99.90;;;;;;4976725;28;20175;-87
2021/01/07 07:34:55;;;;;;;20.37;15.00;;;3.90;99.90;;;;;;4975382;28;20195;-88
2021/01/07 07:37:25;;;;;;;20.40;15.70;;;3.90;99.90;;;;;;4975595;28;20175;-86
2021/01/07 07:40:00;;;;;;;17.63;14.10;;;3.70;99.90;;;;;;4975192;28;20206;-88
2021/01/07 07:42:29;;;;;;;18.43;13.83;;;3.60;99.90;;;;;;4974547;28;20207;-90
2021/01/07 07:44:55;;;;;;;19.27;14.73;;;3.50;99.90;;;;;;4988032;28;20271;-88
2021/01/07 07:47:22;;;;;;;19.57;14.00;;;3.50;99.90;;;;;;5133080;23;20212;-84
2021/01/07 07:53:13;;;;;;;18.13;13.80;;;3.60;99.90;;;;;;5032452;28;20181;-90
2021/01/07 07:55:41;;;;;;;19.53;14.37;;;3.70;99.90;;;;;;5028351;28;20181;-87
2021/01/07 07:58:14;;;;;;;21.10;14.63;;;3.90;99.90;;;;;;5006422;28;20181;-91
2021/01/07 08:00:50;;;;;;;20.73;14.43;;;3.90;99.90;;;;;;5012019;28;20178;-88
2021/01/07 08:03:30;;;;;;;17.83;14.07;;;3.80;99.90;;;;;;5014537;28;20209;-90
2021/01/07 08:06:00;;;;;;;19.30;14.57;;;3.90;99.90;;;;;;5026641;28;20166;-86
2021/01/07 08:08:33;;;;;;;17.77;14.23;;;3.80;99.90;;;;;;5027315;28;20221;-89
2021/01/07 08:11:07;;;;;;;19.63;13.70;;;3.90;99.90;;;;;;5045014;28;20170;-88
2021/01/07 08:13:51;;;;;;;22.17;14.03;;;4.10;99.90;;;;;;5034339;28;20181;-85
2021/01/07 08:16:22;;;;;;;18.57;13.63;;;3.90;99.90;;;;;;5032511;28;20207;-85
2021/01/07 08:18:48;;;;;;;17.27;13.00;;;3.90;99.90;;;;;;5033182;28;20181;-89
2021/01/07 08:25:06;;;;;;;16.83;13.03;;;3.70;99.90;;;;;;5055822;28;20172;-84
2021/01/07 08:27:33;;;;;;;14.63;12.17;;;3.60;99.90;;;;;;5048468;28;20276;-91
2021/01/07 08:30:01;;;;;;;18.87;13.30;;;3.70;99.90;;;;;;5032870;28;20181;-90
2021/01/07 08:32:42;;;;;;;17.37;12.90;;;3.70;99.90;;;;;;5033184;28;20251;-86
2021/01/07 08:35:10;;;;;;;13.93;10.97;;;3.80;99.90;;;;;;5017301;28;20239;-90
2021/01/07 08:37:42;;;;;;;14.10;11.93;;;3.80;99.90;;;;;;5034866;28;20181;-86
2021/01/07 08:40:08;;;;;;;16.10;12.77;;;3.60;99.90;;;;;;5018877;28;20190;-91
2021/01/07 08:43:05;;;;;;;13.27;10.83;;;3.70;99.90;;;;;;5026384;28;20220;-84
2021/01/07 08:45:30;;;;;;;13.27;11.17;;;3.90;99.90;;;;;;5034307;28;20170;-91
2021/01/07 08:48:07;;;;;;;17.80;12.83;;;3.70;99.90;;;;;;5026022;28;20190;-91
2021/01/07 08:50:33;;;;;;;12.90;10.93;;;3.80;99.90;;;;;;5008492;28;20186;-88
2021/01/07 08:52:59;;;;;;;12.30;10.03;;;3.80;99.90;;;;;;5012748;28;20174;-88
2021/01/07 08:55:43;;;;;;;11.63;10.03;;;3.80;99.90;;;;;;5014369;28;20661;-90
2021/01/07 08:58:09;;;;;;;13.33;9.63;;;3.80;99.90;;;;;;4993539;28;20174;-86
2021/01/07 09:00:35;;;;;;;12.90;9.97;;;3.80;99.90;;;;;;5012174;28;20179;-88
2021/01/07 09:03:02;;;;;;;13.00;10.50;;;3.70;99.90;;;;;;5029080;28;20549;-90
2021/01/07 09:05:29;;;;;;;12.23;9.53;;;3.70;99.90;;;;;;5012381;28;20189;-87
2021/01/07 09:08:08;;;;;;;11.30;8.83;;;3.90;99.90;;;;;;5012614;28;20213;-86
2021/01/07 09:10:34;;;;;;;11.80;9.80;;;3.80;99.90;;;;;;5029381;28;20325;-86
2021/01/07 09:13:16;;;;;;;10.53;8.87;;;4.00;99.90;;;;;;5029199;28;20627;-89
2021/01/07 09:15:42;;;;;;;10.13;8.20;;;4.10;99.90;;;;;;5031453;28;20194;-86
2021/01/07 09:18:07;;;;;;;11.77;8.30;;;4.10;99.90;;;;;;5012355;28;20249;-86
2021/01/07 09:20:34;;;;;;;11.10;8.23;;;4.10;99.90;;;;;;5012277;28;20627;-86
2021/01/07 09:23:17;;;;;;;12.47;8.67;;;4.20;99.90;;;;;;5012491;28;20224;-86
2021/01/07 09:25:47;;;;;;;10.10;9.00;;;4.20;99.90;;;;;;5016141;28;20166;-85
2021/01/07 09:28:12;;;;;;;9.97;8.13;;;4.30;99.90;;;;;;5016218;28;20537;-87
2021/01/07 09:30:38;;;;;;;12.63;8.80;;;4.30;99.90;;;;;;5015594;28;20181;-87
2021/01/07 09:33:04;;;;;;;11.87;9.10;;;4.50;99.90;;;;;;5023228;28;20261;-85
2021/01/07 09:35:29;;;;;;;12.80;9.67;;;4.50;99.90;;;;;;5015414;28;20186;-88
2021/01/07 09:37:56;;;;;;;13.17;9.60;;;4.40;99.90;;;;;;5015908;28;20178;-87
2021/01/07 09:40:22;;;;;;;9.97;8.97;;;4.40;99.90;;;;;;5015981;28;20248;-87
2021/01/07 09:42:47;;;;;;;11.57;8.67;;;4.60;99.90;;;;;;5015956;28;20686;-87
2021/01/07 09:45:13;;;;;;;14.20;8.90;;;4.60;99.90;;;;;;5018049;28;20202;-86
2021/01/07 09:47:39;;;;;;;9.83;8.13;;;4.60;99.90;;;;;;5018110;28;20534;-86
2021/01/07 09:50:07;;;;;;;13.70;8.57;;;4.60;99.90;;;;;;5018285;28;20198;-88
2021/01/07 09:52:33;;;;;;;10.17;8.03;;;4.70;99.90;;;;;;5018010;28;20174;-84
2021/01/07 09:55:00;;;;;;;13.03;8.77;;;4.50;99.90;;;;;;5028780;28;20166;-85
2021/01/07 09:57:26;;;;;;;9.87;8.67;;;4.50;99.90;;;;;;5021037;28;20174;-86
2021/01/07 09:59:52;;;;;;;11.33;9.47;;;4.60;99.90;;;;;;5015924;28;20653;-87
2021/01/07 10:02:17;;;;;;;11.57;9.23;;;4.80;99.90;;;;;;5018765;28;20213;-86
2021/01/07 10:04:44;;;;;;;12.43;8.23;;;4.80;99.90;;;;;;5015060;28;20174;-86
2021/01/07 10:07:12;;;;;;;9.83;7.37;;;4.90;99.90;;;;;;5021986;28;20181;-87
2021/01/07 10:09:58;;;;;;;9.23;7.47;;;5.10;99.90;;;;;;4990966;28;20206;-87
2021/01/07 10:12:24;;;;;;;9.27;7.10;;;4.90;99.90;;;;;;5017124;28;20248;-88
2021/01/07 10:14:55;;;;;;;10.43;8.37;;;4.80;99.90;;;;;;5037445;28;20232;-87
2021/01/07 10:17:23;;;;;;;8.90;6.60;;;4.90;99.90;;;;;;5043147;28;20630;-84
2021/01/07 10:19:49;;;;;;;7.87;7.00;;;5.00;99.90;;;;;;5025522;28;20170;-88
2021/01/07 10:22:20;;;;;;;9.03;6.40;;;5.10;99.90;;;;;;5017147;28;20213;-87
2021/01/07 10:24:47;;;;;;;9.10;6.13;;;5.20;99.90;;;;;;5015875;28;20170;-86
2021/01/07 10:27:15;;;;;;;8.03;6.40;;;5.10;99.90;;;;;;5016181;28;20175;-88
2021/01/07 10:29:45;;;;;;;8.43;6.20;;;5.10;99.90;;;;;;5020949;28;20182;-88
2021/01/07 10:32:27;;;;;;;12.07;7.07;;;5.10;99.90;;;;;;5031875;28;20598;-89
2021/01/07 10:34:57;;;;;;;9.03;6.00;;;5.10;99.90;;;;;;5012986;28;20182;-87
2021/01/07 10:37:24;;;;;;;9.93;5.60;;;5.00;99.90;;;;;;5012597;28;20171;-86
2021/01/07 10:39:53;;;;;;;7.67;5.23;;;4.80;99.90;;;;;;5019222;28;20190;-84
2021/01/07 10:42:19;;;;;;;6.77;4.73;;;4.80;99.90;;;;;;5008170;28;20708;-86
2021/01/07 10:44:46;;;;;;;9.40;5.40;;;4.60;99.90;;;;;;4998558;28;20206;-88
2021/01/07 10:47:15;;;;;;;8.23;4.93;;;4.70;99.90;;;;;;4995793;28;20178;-87
2021/01/07 10:49:46;;;;;;;9.33;4.80;;;4.80;99.90;;;;;;4996174;28;20245;-88
2021/01/07 10:52:41;;;;;;;12.43;5.30;;;4.50;99.90;;;;;;4994924;28;20546;-86
2021/01/07 10:55:21;;;;;;;11.13;5.17;;;4.60;99.90;;;;;;4996141;28;20191;-86
2021/01/07 10:58:10;;;;;;;7.00;4.73;;;4.70;99.90;;;;;;5013195;28;20174;-88
2021/01/07 11:01:01;;;;;;;9.47;6.03;;;4.60;99.90;;;;;;5031230;28;20638;-86
2021/01/07 11:03:46;;;;;;;10.13;5.40;;;4.60;99.90;;;;;;5014045;28;20224;-87
2021/01/07 11:06:14;;;;;;;10.60;5.27;;;4.80;99.90;;;;;;5031024;28;20535;-89
2021/01/07 11:09:01;;;;;;;10.27;5.13;;;4.90;99.90;;;;;;5007345;28;20196;-89
2021/01/07 11:11:56;;;;;;;6.90;4.53;;;5.00;99.90;;;;;;4995493;28;20171;-87
2021/01/07 11:14:34;;;;;;;10.23;5.23;;;5.00;99.90;;;;;;4992131;28;20221;-89
2021/01/07 11:17:10;;;;;;;9.97;4.80;;;5.20;99.90;;;;;;5000318;28;20185;-87
2021/01/07 11:19:36;;;;;;;8.43;4.27;;;5.20;99.90;;;;;;5006247;28;20181;-85
2021/01/07 11:22:12;;;;;;;8.57;4.80;;;5.30;99.90;;;;;;5029863;28;20623;-86
2021/01/07 11:24:40;;;;;;;11.07;4.90;;;5.30;99.90;;;;;;5013775;28;20170;-87
2021/01/07 11:27:06;;;;;;;7.43;4.57;;;5.40;99.90;;;;;;5029982;28;20217;-90
2021/01/07 11:29:34;;;;;;;7.87;4.20;;;5.40;99.90;;;;;;5029923;28;20227;-88
2021/01/07 11:32:02;;;;;;;10.27;3.53;;;5.20;99.90;;;;;;5009240;28;20175;-89
2021/01/07 11:34:28;;;;;;;7.53;4.13;;;5.20;99.90;;;;;;5005846;28;20169;-90
2021/01/07 11:37:03;;;;;;;8.93;4.33;;;5.20;99.90;;;;;;5013565;28;20185;-88
2021/01/07 11:39:55;;;;;;;8.10;4.23;;;5.20;99.90;;;;;;5013068;28;20194;-88
2021/01/07 11:42:28;;;;;;;7.83;3.63;;;5.20;99.90;;;;;;5014230;28;20206;-88
2021/01/07 11:45:03;;;;;;;6.83;3.73;;;5.40;99.90;;;;;;5013749;28;20698;-88
2021/01/07 11:47:37;;;;;;;7.07;3.87;;;5.40;99.90;;;;;;5012177;28;20173;-87
2021/01/07 11:50:06;;;;;;;8.87;4.27;;;5.20;99.90;;;;;;5012932;28;20205;-88
2021/01/07 11:52:35;;;;;;;8.13;3.83;;;5.20;99.90;;;;;;4994989;28;20178;-87
2021/01/07 11:55:02;;;;;;;10.53;4.23;;;5.30;99.90;;;;;;4994273;28;20269;-86
2021/01/07 11:57:33;;;;;;;6.93;4.47;;;5.30;99.90;;;;;;4994994;28;20608;-88
2021/01/07 12:00:02;;;;;;;9.63;4.77;;;5.40;99.90;;;;;;4993755;28;20533;-85
2021/01/07 12:02:30;;;;;;;9.27;5.10;;;5.40;99.90;;;;;;4993542;28;20213;-86
2021/01/07 12:04:58;;;;;;;10.70;5.00;;;5.40;99.90;;;;;;5005030;28;20694;-88
2021/01/07 12:07:29;;;;;;;9.10;4.33;;;5.50;99.90;;;;;;5005273;28;20171;-88
2021/01/07 12:10:01;;;;;;;10.33;4.70;;;5.40;99.90;;;;;;4993549;28;20254;-87
2021/01/07 12:12:36;;;;;;;7.63;4.70;;;5.50;99.90;;;;;;4993843;28;20179;-87
2021/01/07 12:15:03;;;;;;;7.03;3.70;;;5.50;99.90;;;;;;4993182;28;20249;-88
2021/01/07 12:17:29;;;;;;;10.13;3.97;;;5.50;99.90;;;;;;5006666;28;20213;-87
2021/01/07 12:19:59;;;;;;;7.00;4.10;;;5.50;99.90;;;;;;5013416;28;20606;-86
2021/01/07 12:22:25;;;;;;;8.80;4.17;;;5.50;99.90;;;;;;5014520;28;20264;-88
2021/01/07 12:24:52;;;;;;;8.37;4.03;;;5.50;99.90;;;;;;5014267;28;20174;-89
2021/01/07 12:27:19;;;;;;;9.67;4.07;;;5.50;99.90;;;;;;5028557;28;20170;-85
2021/01/07 12:29:46;;;;;;;7.30;4.20;;;5.60;99.90;;;;;;5013329;28;20240;-86
2021/01/07 12:32:17;;;;;;;7.17;4.47;;;5.60;99.90;;;;;;5012328;28;20616;-89
2021/01/07 12:35:06;;;;;;;7.17;3.27;;;5.60;99.90;;;;;;5012649;28;20178;-86
2021/01/07 12:37:45;;;;;;;8.20;4.80;;;5.50;99.90;;;;;;4992950;28;20171;-86
2021/01/07 12:40:16;;;;;;;7.33;3.97;;;5.50;99.90;;;;;;4995834;28;20282;-87
2021/01/07 12:42:54;;;;;;;8.23;4.00;;;5.60;99.90;;;;;;4993204;28;20210;-86
2021/01/07 12:45:20;;;;;;;8.47;4.33;;;5.50;99.90;;;;;;5008987;28;20765;-87
2021/01/07 12:47:46;;;;;;;11.77;4.27;;;5.50;99.90;;;;;;5012681;28;20190;-86
2021/01/07 12:50:12;;;;;;;11.67;4.57;;;5.50;99.90;;;;;;5012694;28;20186;-86
2021/01/07 12:52:39;;;;;;;14.10;4.80;;;5.40;99.90;;;;;;5011973;28;20170;-89
2021/01/07 12:55:09;;;;;;;7.57;4.90;;;5.40;99.90;;;;;;5012593;28;20170;-86
2021/01/07 12:57:55;;;;;;;11.67;5.83;;;5.50;99.90;;;;;;5012445;28;20182;-88